sensor_id;sensor_type;location;lat;lon;timestamp;P1;durP1;ratioP1;P2;durP2;ratioP2
8694;SDS011;65580;49.446;6.854;2023-07-08T00:01:22;8.50;;;3.92;;
8694;SDS011;65580;49.446;6.854;2023-07-08T00:05:25;10.20;;;4.53;;
8694;SDS011;65580;49.446;6.854;2023-07-08T00:09:29;6.95;;;3.72;;
8694;SDS011;65580;49.446;6.854;2023-07-08T00:13:32;8.73;;;4.05;;
8694;SDS011;65580;49.446;6.854;2023-07-08T00:17:35;9.60;;;4.50;;
8694;SDS011;65580;49.446;6.854;2023-07-08T00:21:38;9.20;;;4.30;;
8694;SDS011;65580;49.446;6.854;2023-07-08T00:29:45;8.82;;;4.18;;
8694;SDS011;65580;49.446;6.854;2023-07-08T00:33:48;9.73;;;4.43;;
8694;SDS011;65580;49.446;6.854;2023-07-08T00:37:51;10.02;;;4.38;;
8694;SDS011;65580;49.446;6.854;2023-07-08T00:41:56;9.70;;;4.63;;
8694;SDS011;65580;49.446;6.854;2023-07-08T00:46:03;9.00;;;4.22;;
8694;SDS011;65580;49.446;6.854;2023-07-08T00:50:15;9.85;;;4.47;;
8694;SDS011;65580;49.446;6.854;2023-07-08T00:54:18;7.43;;;4.10;;
8694;SDS011;65580;49.446;6.854;2023-07-08T00:58:23;9.40;;;5.13;;
8694;SDS011;65580;49.446;6.854;2023-07-08T01:02:28;8.73;;;4.10;;
8694;SDS011;65580;49.446;6.854;2023-07-08T01:10:36;10.38;;;4.55;;
8694;SDS011;65580;49.446;6.854;2023-07-08T01:14:43;7.45;;;3.97;;
8694;SDS011;65580;49.446;6.854;2023-07-08T01:18:46;8.48;;;4.35;;
8694;SDS011;65580;49.446;6.854;2023-07-08T01:22:56;10.48;;;4.85;;
8694;SDS011;65580;49.446;6.854;2023-07-08T01:26:59;8.48;;;4.43;;
8694;SDS011;65580;49.446;6.854;2023-07-08T01:31:03;9.50;;;4.53;;
8694;SDS011;65580;49.446;6.854;2023-07-08T01:35:08;10.70;;;4.53;;
8694;SDS011;65580;49.446;6.854;2023-07-08T01:39:14;10.73;;;4.53;;
8694;SDS011;65580;49.446;6.854;2023-07-08T01:43:19;9.43;;;4.35;;
8694;SDS011;65580;49.446;6.854;2023-07-08T01:47:22;9.40;;;4.82;;
8694;SDS011;65580;49.446;6.854;2023-07-08T01:51:25;14.20;;;4.55;;
8694;SDS011;65580;49.446;6.854;2023-07-08T01:55:30;11.00;;;4.32;;
8694;SDS011;65580;49.446;6.854;2023-07-08T01:59:34;7.93;;;4.20;;
8694;SDS011;65580;49.446;6.854;2023-07-08T02:03:37;7.57;;;4.40;;
8694;SDS011;65580;49.446;6.854;2023-07-08T02:07:41;10.45;;;4.80;;
8694;SDS011;65580;49.446;6.854;2023-07-08T02:11:45;9.00;;;4.50;;
8694;SDS011;65580;49.446;6.854;2023-07-08T02:15:48;9.07;;;4.45;;
8694;SDS011;65580;49.446;6.854;2023-07-08T02:19:51;9.13;;;4.65;;
8694;SDS011;65580;49.446;6.854;2023-07-08T02:23:54;9.50;;;4.25;;
8694;SDS011;65580;49.446;6.854;2023-07-08T02:27:58;11.45;;;4.93;;
8694;SDS011;65580;49.446;6.854;2023-07-08T02:32:01;10.45;;;5.43;;
8694;SDS011;65580;49.446;6.854;2023-07-08T02:36:04;14.88;;;5.28;;
8694;SDS011;65580;49.446;6.854;2023-07-08T02:40:08;11.32;;;4.65;;
8694;SDS011;65580;49.446;6.854;2023-07-08T02:44:14;9.82;;;4.68;;
8694;SDS011;65580;49.446;6.854;2023-07-08T02:48:17;11.95;;;4.35;;
8694;SDS011;65580;49.446;6.854;2023-07-08T02:52:20;9.07;;;4.82;;
8694;SDS011;65580;49.446;6.854;2023-07-08T02:56:23;8.90;;;4.70;;
8694;SDS011;65580;49.446;6.854;2023-07-08T03:00:29;9.30;;;4.63;;
8694;SDS011;65580;49.446;6.854;2023-07-08T03:04:31;8.07;;;4.22;;
8694;SDS011;65580;49.446;6.854;2023-07-08T03:08:34;8.98;;;4.63;;
8694;SDS011;65580;49.446;6.854;2023-07-08T03:12:37;10.38;;;4.55;;
8694;SDS011;65580;49.446;6.854;2023-07-08T03:16:41;12.30;;;5.28;;
8694;SDS011;65580;49.446;6.854;2023-07-08T03:20:44;10.57;;;4.07;;
8694;SDS011;65580;49.446;6.854;2023-07-08T03:24:48;11.48;;;4.80;;
8694;SDS011;65580;49.446;6.854;2023-07-08T03:28:51;9.02;;;4.63;;
8694;SDS011;65580;49.446;6.854;2023-07-08T03:32:56;10.35;;;5.10;;
8694;SDS011;65580;49.446;6.854;2023-07-08T03:36:58;8.85;;;4.78;;
8694;SDS011;65580;49.446;6.854;2023-07-08T03:41:01;11.85;;;4.72;;
8694;SDS011;65580;49.446;6.854;2023-07-08T03:45:05;9.45;;;4.57;;
8694;SDS011;65580;49.446;6.854;2023-07-08T03:49:10;9.57;;;5.03;;
8694;SDS011;65580;49.446;6.854;2023-07-08T03:53:13;11.20;;;5.13;;
8694;SDS011;65580;49.446;6.854;2023-07-08T03:57:16;10.52;;;4.72;;
8694;SDS011;65580;49.446;6.854;2023-07-08T04:01:19;11.57;;;5.20;;
8694;SDS011;65580;49.446;6.854;2023-07-08T04:05:26;10.25;;;5.18;;
8694;SDS011;65580;49.446;6.854;2023-07-08T04:09:29;11.18;;;4.93;;
8694;SDS011;65580;49.446;6.854;2023-07-08T04:13:32;9.90;;;4.53;;
8694;SDS011;65580;49.446;6.854;2023-07-08T04:17:35;11.05;;;5.10;;
8694;SDS011;65580;49.446;6.854;2023-07-08T04:21:39;12.02;;;4.50;;
8694;SDS011;65580;49.446;6.854;2023-07-08T04:25:43;8.63;;;4.50;;
8694;SDS011;65580;49.446;6.854;2023-07-08T04:29:46;8.38;;;4.47;;
8694;SDS011;65580;49.446;6.854;2023-07-08T04:33:49;10.50;;;4.90;;
8694;SDS011;65580;49.446;6.854;2023-07-08T04:37:54;10.95;;;4.70;;
8694;SDS011;65580;49.446;6.854;2023-07-08T04:41:56;11.68;;;4.78;;
8694;SDS011;65580;49.446;6.854;2023-07-08T04:45:59;10.10;;;4.70;;
8694;SDS011;65580;49.446;6.854;2023-07-08T04:50:02;10.15;;;4.90;;
8694;SDS011;65580;49.446;6.854;2023-07-08T04:58:10;23.92;;;4.63;;
8694;SDS011;65580;49.446;6.854;2023-07-08T05:02:12;8.10;;;4.30;;
8694;SDS011;65580;49.446;6.854;2023-07-08T05:06:15;11.07;;;4.55;;
8694;SDS011;65580;49.446;6.854;2023-07-08T05:10:20;10.02;;;4.90;;
8694;SDS011;65580;49.446;6.854;2023-07-08T05:14:24;10.70;;;5.00;;
8694;SDS011;65580;49.446;6.854;2023-07-08T05:18:26;11.10;;;4.90;;
8694;SDS011;65580;49.446;6.854;2023-07-08T05:22:29;9.45;;;4.65;;
8694;SDS011;65580;49.446;6.854;2023-07-08T05:30:36;10.50;;;4.95;;
8694;SDS011;65580;49.446;6.854;2023-07-08T05:34:42;10.52;;;4.65;;
8694;SDS011;65580;49.446;6.854;2023-07-08T05:38:45;8.82;;;5.00;;
8694;SDS011;65580;49.446;6.854;2023-07-08T05:42:49;12.35;;;4.72;;
8694;SDS011;65580;49.446;6.854;2023-07-08T05:46:53;9.38;;;4.57;;
8694;SDS011;65580;49.446;6.854;2023-07-08T05:54:59;10.65;;;4.65;;
8694;SDS011;65580;49.446;6.854;2023-07-08T05:59:03;10.77;;;4.60;;
8694;SDS011;65580;49.446;6.854;2023-07-08T06:03:06;8.88;;;5.20;;
8694;SDS011;65580;49.446;6.854;2023-07-08T06:07:09;11.23;;;4.95;;
8694;SDS011;65580;49.446;6.854;2023-07-08T06:11:12;9.30;;;5.15;;
8694;SDS011;65580;49.446;6.854;2023-07-08T06:15:16;8.98;;;5.30;;
8694;SDS011;65580;49.446;6.854;2023-07-08T06:19:19;9.57;;;5.05;;
8694;SDS011;65580;49.446;6.854;2023-07-08T06:23:22;12.23;;;4.90;;
8694;SDS011;65580;49.446;6.854;2023-07-08T06:27:25;7.63;;;4.65;;
8694;SDS011;65580;49.446;6.854;2023-07-08T06:31:29;9.45;;;5.40;;
8694;SDS011;65580;49.446;6.854;2023-07-08T06:35:33;8.32;;;5.03;;
8694;SDS011;65580;49.446;6.854;2023-07-08T06:39:35;8.35;;;5.03;;
8694;SDS011;65580;49.446;6.854;2023-07-08T06:43:42;10.25;;;5.32;;
8694;SDS011;65580;49.446;6.854;2023-07-08T06:47:47;8.90;;;4.80;;
8694;SDS011;65580;49.446;6.854;2023-07-08T06:51:50;10.10;;;5.03;;
8694;SDS011;65580;49.446;6.854;2023-07-08T06:55:53;9.45;;;4.90;;
8694;SDS011;65580;49.446;6.854;2023-07-08T06:59:55;7.68;;;4.57;;
8694;SDS011;65580;49.446;6.854;2023-07-08T07:04:01;9.00;;;4.82;;
8694;SDS011;65580;49.446;6.854;2023-07-08T07:08:04;8.57;;;5.22;;
8694;SDS011;65580;49.446;6.854;2023-07-08T07:12:10;12.50;;;5.10;;
8694;SDS011;65580;49.446;6.854;2023-07-08T07:16:13;9.77;;;5.00;;
8694;SDS011;65580;49.446;6.854;2023-07-08T07:20:18;9.40;;;5.00;;
8694;SDS011;65580;49.446;6.854;2023-07-08T07:24:20;10.20;;;4.35;;
8694;SDS011;65580;49.446;6.854;2023-07-08T07:28:23;7.65;;;4.05;;
8694;SDS011;65580;49.446;6.854;2023-07-08T07:32:26;8.77;;;4.22;;
8694;SDS011;65580;49.446;6.854;2023-07-08T07:36:32;8.82;;;4.30;;
8694;SDS011;65580;49.446;6.854;2023-07-08T07:40:35;10.52;;;4.55;;
8694;SDS011;65580;49.446;6.854;2023-07-08T07:44:38;8.95;;;3.95;;
8694;SDS011;65580;49.446;6.854;2023-07-08T07:48:41;10.38;;;4.72;;
8694;SDS011;65580;49.446;6.854;2023-07-08T07:52:46;8.25;;;3.97;;
8694;SDS011;65580;49.446;6.854;2023-07-08T07:56:49;9.90;;;3.90;;
8694;SDS011;65580;49.446;6.854;2023-07-08T08:00:51;7.18;;;4.10;;
8694;SDS011;65580;49.446;6.854;2023-07-08T08:04:54;10.52;;;4.10;;
8694;SDS011;65580;49.446;6.854;2023-07-08T08:08:59;6.78;;;3.85;;
8694;SDS011;65580;49.446;6.854;2023-07-08T08:13:02;7.57;;;3.50;;
8694;SDS011;65580;49.446;6.854;2023-07-08T08:17:05;9.65;;;3.75;;
8694;SDS011;65580;49.446;6.854;2023-07-08T08:21:09;9.00;;;3.80;;
8694;SDS011;65580;49.446;6.854;2023-07-08T08:25:13;5.70;;;3.10;;
8694;SDS011;65580;49.446;6.854;2023-07-08T08:29:17;9.05;;;3.85;;
8694;SDS011;65580;49.446;6.854;2023-07-08T08:33:20;8.88;;;3.42;;
8694;SDS011;65580;49.446;6.854;2023-07-08T08:37:23;10.20;;;3.70;;
8694;SDS011;65580;49.446;6.854;2023-07-08T08:41:29;7.43;;;3.53;;
8694;SDS011;65580;49.446;6.854;2023-07-08T08:45:34;9.85;;;3.67;;
8694;SDS011;65580;49.446;6.854;2023-07-08T08:49:43;10.20;;;3.78;;
8694;SDS011;65580;49.446;6.854;2023-07-08T08:53:49;7.53;;;3.42;;
8694;SDS011;65580;49.446;6.854;2023-07-08T08:57:59;10.63;;;3.40;;
8694;SDS011;65580;49.446;6.854;2023-07-08T09:02:14;6.53;;;3.45;;
8694;SDS011;65580;49.446;6.854;2023-07-08T09:06:25;9.80;;;4.00;;
8694;SDS011;65580;49.446;6.854;2023-07-08T09:10:31;8.23;;;3.50;;
8694;SDS011;65580;49.446;6.854;2023-07-08T09:14:42;5.35;;;3.65;;
8694;SDS011;65580;49.446;6.854;2023-07-08T09:18:50;8.48;;;3.20;;
8694;SDS011;65580;49.446;6.854;2023-07-08T09:23:01;8.52;;;3.55;;
8694;SDS011;65580;49.446;6.854;2023-07-08T09:27:06;4.85;;;2.85;;
8694;SDS011;65580;49.446;6.854;2023-07-08T09:31:16;8.63;;;3.35;;
8694;SDS011;65580;49.446;6.854;2023-07-08T09:35:25;10.57;;;3.28;;
8694;SDS011;65580;49.446;6.854;2023-07-08T09:39:29;7.45;;;2.90;;
8694;SDS011;65580;49.446;6.854;2023-07-08T09:43:34;5.53;;;2.85;;
8694;SDS011;65580;49.446;6.854;2023-07-08T09:47:39;6.68;;;3.13;;
8694;SDS011;65580;49.446;6.854;2023-07-08T09:51:42;7.78;;;3.30;;
8694;SDS011;65580;49.446;6.854;2023-07-08T09:55:46;5.80;;;3.00;;
8694;SDS011;65580;49.446;6.854;2023-07-08T09:59:51;6.97;;;3.10;;
8694;SDS011;65580;49.446;6.854;2023-07-08T10:03:59;7.25;;;3.20;;
8694;SDS011;65580;49.446;6.854;2023-07-08T10:08:03;7.70;;;2.80;;
8694;SDS011;65580;49.446;6.854;2023-07-08T10:12:14;7.55;;;3.05;;
8694;SDS011;65580;49.446;6.854;2023-07-08T10:16:20;6.30;;;2.92;;
8694;SDS011;65580;49.446;6.854;2023-07-08T10:20:29;9.98;;;2.97;;
8694;SDS011;65580;49.446;6.854;2023-07-08T10:24:44;7.25;;;3.03;;
8694;SDS011;65580;49.446;6.854;2023-07-08T10:29:05;6.78;;;2.83;;
8694;SDS011;65580;49.446;6.854;2023-07-08T10:33:18;7.75;;;3.00;;
8694;SDS011;65580;49.446;6.854;2023-07-08T10:37:39;5.15;;;2.85;;
8694;SDS011;65580;49.446;6.854;2023-07-08T10:41:50;8.70;;;3.00;;
8694;SDS011;65580;49.446;6.854;2023-07-08T10:50:06;6.47;;;3.20;;
8694;SDS011;65580;49.446;6.854;2023-07-08T10:54:33;8.10;;;3.20;;
8694;SDS011;65580;49.446;6.854;2023-07-08T10:58:50;7.63;;;3.42;;
8694;SDS011;65580;49.446;6.854;2023-07-08T11:03:14;5.88;;;3.13;;
8694;SDS011;65580;49.446;6.854;2023-07-08T11:07:30;10.75;;;3.30;;
8694;SDS011;65580;49.446;6.854;2023-07-08T11:11:39;7.95;;;2.90;;
8694;SDS011;65580;49.446;6.854;2023-07-08T11:15:46;6.55;;;2.97;;
8694;SDS011;65580;49.446;6.854;2023-07-08T11:19:55;9.98;;;3.35;;
8694;SDS011;65580;49.446;6.854;2023-07-08T11:24:03;7.57;;;3.03;;
8694;SDS011;65580;49.446;6.854;2023-07-08T11:32:16;10.48;;;3.25;;
8694;SDS011;65580;49.446;6.854;2023-07-08T11:36:20;6.00;;;2.90;;
8694;SDS011;65580;49.446;6.854;2023-07-08T11:40:24;9.60;;;2.97;;
8694;SDS011;65580;49.446;6.854;2023-07-08T11:44:28;8.32;;;3.90;;
8694;SDS011;65580;49.446;6.854;2023-07-08T11:48:31;7.75;;;3.90;;
8694;SDS011;65580;49.446;6.854;2023-07-08T11:52:39;7.60;;;3.55;;
8694;SDS011;65580;49.446;6.854;2023-07-08T12:01:03;8.13;;;3.20;;
8694;SDS011;65580;49.446;6.854;2023-07-08T12:05:11;7.43;;;3.42;;
8694;SDS011;65580;49.446;6.854;2023-07-08T12:09:15;8.90;;;3.25;;
8694;SDS011;65580;49.446;6.854;2023-07-08T12:13:26;4.57;;;3.08;;
8694;SDS011;65580;49.446;6.854;2023-07-08T12:17:32;8.65;;;3.53;;
8694;SDS011;65580;49.446;6.854;2023-07-08T12:21:35;7.75;;;3.00;;
8694;SDS011;65580;49.446;6.854;2023-07-08T12:25:38;8.75;;;3.10;;
8694;SDS011;65580;49.446;6.854;2023-07-08T12:29:41;7.43;;;2.95;;
8694;SDS011;65580;49.446;6.854;2023-07-08T12:33:46;5.30;;;2.65;;
8694;SDS011;65580;49.446;6.854;2023-07-08T12:37:50;6.03;;;2.70;;
8694;SDS011;65580;49.446;6.854;2023-07-08T12:41:53;8.68;;;2.80;;
8694;SDS011;65580;49.446;6.854;2023-07-08T12:45:59;6.53;;;3.00;;
8694;SDS011;65580;49.446;6.854;2023-07-08T12:50:07;5.70;;;2.60;;
8694;SDS011;65580;49.446;6.854;2023-07-08T12:54:11;6.78;;;2.72;;
8694;SDS011;65580;49.446;6.854;2023-07-08T12:58:17;6.30;;;2.67;;
8694;SDS011;65580;49.446;6.854;2023-07-08T13:02:27;9.25;;;2.85;;
8694;SDS011;65580;49.446;6.854;2023-07-08T13:06:34;6.25;;;2.90;;
8694;SDS011;65580;49.446;6.854;2023-07-08T13:10:38;5.07;;;2.53;;
8694;SDS011;65580;49.446;6.854;2023-07-08T13:14:42;7.18;;;2.72;;
8694;SDS011;65580;49.446;6.854;2023-07-08T13:18:46;9.27;;;2.80;;
8694;SDS011;65580;49.446;6.854;2023-07-08T13:22:53;6.97;;;2.58;;
8694;SDS011;65580;49.446;6.854;2023-07-08T13:26:57;5.68;;;2.50;;
8694;SDS011;65580;49.446;6.854;2023-07-08T13:31:01;6.53;;;2.45;;
8694;SDS011;65580;49.446;6.854;2023-07-08T13:35:19;5.53;;;2.50;;
8694;SDS011;65580;49.446;6.854;2023-07-08T13:39:26;6.80;;;2.70;;
8694;SDS011;65580;49.446;6.854;2023-07-08T13:43:31;6.00;;;2.83;;
8694;SDS011;65580;49.446;6.854;2023-07-08T13:47:34;8.88;;;2.70;;
8694;SDS011;65580;49.446;6.854;2023-07-08T13:51:38;4.50;;;2.33;;
8694;SDS011;65580;49.446;6.854;2023-07-08T13:55:43;4.78;;;2.60;;
8694;SDS011;65580;49.446;6.854;2023-07-08T13:59:46;4.70;;;2.20;;
8694;SDS011;65580;49.446;6.854;2023-07-08T14:03:49;6.13;;;2.10;;
8694;SDS011;65580;49.446;6.854;2023-07-08T14:07:53;11.38;;;2.70;;
8694;SDS011;65580;49.446;6.854;2023-07-08T14:11:57;5.00;;;2.55;;
8694;SDS011;65580;49.446;6.854;2023-07-08T14:16:01;9.43;;;3.17;;
8694;SDS011;65580;49.446;6.854;2023-07-08T14:20:07;6.70;;;2.97;;
8694;SDS011;65580;49.446;6.854;2023-07-08T14:24:13;4.38;;;2.80;;
8694;SDS011;65580;49.446;6.854;2023-07-08T14:28:18;7.38;;;3.33;;
8694;SDS011;65580;49.446;6.854;2023-07-08T14:32:22;6.03;;;2.58;;
8694;SDS011;65580;49.446;6.854;2023-07-08T14:36:28;5.72;;;3.10;;
8694;SDS011;65580;49.446;6.854;2023-07-08T14:40:32;5.18;;;2.90;;
8694;SDS011;65580;49.446;6.854;2023-07-08T14:44:39;12.80;;;7.70;;
8694;SDS011;65580;49.446;6.854;2023-07-08T14:48:43;6.40;;;3.15;;
8694;SDS011;65580;49.446;6.854;2023-07-08T14:52:46;6.07;;;3.20;;
8694;SDS011;65580;49.446;6.854;2023-07-08T14:56:49;12.80;;;7.43;;
8694;SDS011;65580;49.446;6.854;2023-07-08T15:00:55;18.88;;;13.02;;
8694;SDS011;65580;49.446;6.854;2023-07-08T15:04:59;7.20;;;4.68;;
8694;SDS011;65580;49.446;6.854;2023-07-08T15:09:02;18.13;;;10.52;;
8694;SDS011;65580;49.446;6.854;2023-07-08T15:13:08;14.45;;;7.45;;
8694;SDS011;65580;49.446;6.854;2023-07-08T15:17:14;11.63;;;6.05;;
8694;SDS011;65580;49.446;6.854;2023-07-08T15:21:18;14.50;;;8.60;;
8694;SDS011;65580;49.446;6.854;2023-07-08T15:25:21;14.75;;;8.65;;
8694;SDS011;65580;49.446;6.854;2023-07-08T15:29:24;9.30;;;5.50;;
8694;SDS011;65580;49.446;6.854;2023-07-08T15:33:29;12.10;;;5.20;;
8694;SDS011;65580;49.446;6.854;2023-07-08T15:37:31;10.55;;;5.35;;
8694;SDS011;65580;49.446;6.854;2023-07-08T15:41:34;10.63;;;5.05;;
8694;SDS011;65580;49.446;6.854;2023-07-08T15:45:39;7.30;;;4.45;;
8694;SDS011;65580;49.446;6.854;2023-07-08T15:49:44;9.68;;;4.57;;
8694;SDS011;65580;49.446;6.854;2023-07-08T15:53:47;11.70;;;4.22;;
8694;SDS011;65580;49.446;6.854;2023-07-08T15:57:50;11.05;;;3.95;;
8694;SDS011;65580;49.446;6.854;2023-07-08T16:01:54;7.50;;;3.92;;
8694;SDS011;65580;49.446;6.854;2023-07-08T16:06:01;6.30;;;3.65;;
8694;SDS011;65580;49.446;6.854;2023-07-08T16:10:04;7.85;;;3.40;;
8694;SDS011;65580;49.446;6.854;2023-07-08T16:14:07;7.57;;;3.33;;
8694;SDS011;65580;49.446;6.854;2023-07-08T16:18:13;7.30;;;2.80;;
8694;SDS011;65580;49.446;6.854;2023-07-08T16:22:17;9.63;;;3.22;;
8694;SDS011;65580;49.446;6.854;2023-07-08T16:26:20;4.88;;;2.65;;
8694;SDS011;65580;49.446;6.854;2023-07-08T16:30:22;7.03;;;2.88;;
8694;SDS011;65580;49.446;6.854;2023-07-08T16:34:25;8.20;;;2.88;;
8694;SDS011;65580;49.446;6.854;2023-07-08T16:38:30;6.07;;;2.55;;
8694;SDS011;65580;49.446;6.854;2023-07-08T16:42:33;5.32;;;2.50;;
8694;SDS011;65580;49.446;6.854;2023-07-08T16:46:35;8.98;;;3.00;;
8694;SDS011;65580;49.446;6.854;2023-07-08T16:50:38;6.38;;;2.53;;
8694;SDS011;65580;49.446;6.854;2023-07-08T16:54:43;6.72;;;2.50;;
8694;SDS011;65580;49.446;6.854;2023-07-08T16:58:45;8.32;;;2.78;;
8694;SDS011;65580;49.446;6.854;2023-07-08T17:02:48;6.82;;;2.65;;
8694;SDS011;65580;49.446;6.854;2023-07-08T17:06:51;6.07;;;2.30;;
8694;SDS011;65580;49.446;6.854;2023-07-08T17:10:56;4.78;;;2.55;;
8694;SDS011;65580;49.446;6.854;2023-07-08T17:14:58;8.32;;;2.97;;
8694;SDS011;65580;49.446;6.854;2023-07-08T17:19:02;4.80;;;2.50;;
8694;SDS011;65580;49.446;6.854;2023-07-08T17:23:08;6.68;;;2.40;;
8694;SDS011;65580;49.446;6.854;2023-07-08T17:27:13;8.25;;;2.60;;
8694;SDS011;65580;49.446;6.854;2023-07-08T17:31:16;4.95;;;2.80;;
8694;SDS011;65580;49.446;6.854;2023-07-08T17:35:38;6.60;;;2.85;;
8694;SDS011;65580;49.446;6.854;2023-07-08T17:39:41;5.88;;;2.45;;
8694;SDS011;65580;49.446;6.854;2023-07-08T17:43:45;3.92;;;2.38;;
8694;SDS011;65580;49.446;6.854;2023-07-08T17:47:48;3.28;;;2.00;;
8694;SDS011;65580;49.446;6.854;2023-07-08T17:51:51;6.50;;;2.72;;
8694;SDS011;65580;49.446;6.854;2023-07-08T17:55:55;9.52;;;3.00;;
8694;SDS011;65580;49.446;6.854;2023-07-08T18:00:01;6.05;;;2.53;;
8694;SDS011;65580;49.446;6.854;2023-07-08T18:04:04;4.45;;;2.42;;
8694;SDS011;65580;49.446;6.854;2023-07-08T18:08:07;4.70;;;2.28;;
8694;SDS011;65580;49.446;6.854;2023-07-08T18:12:10;6.65;;;2.72;;
8694;SDS011;65580;49.446;6.854;2023-07-08T18:16:15;7.00;;;2.20;;
8694;SDS011;65580;49.446;6.854;2023-07-08T18:20:19;9.45;;;2.70;;
8694;SDS011;65580;49.446;6.854;2023-07-08T18:24:22;5.18;;;2.42;;
8694;SDS011;65580;49.446;6.854;2023-07-08T18:28:25;7.13;;;2.50;;
8694;SDS011;65580;49.446;6.854;2023-07-08T18:32:29;5.30;;;2.25;;
8694;SDS011;65580;49.446;6.854;2023-07-08T18:36:32;3.60;;;2.00;;
8694;SDS011;65580;49.446;6.854;2023-07-08T18:40:36;4.65;;;2.45;;
8694;SDS011;65580;49.446;6.854;2023-07-08T18:44:41;7.35;;;2.67;;
8694;SDS011;65580;49.446;6.854;2023-07-08T18:48:45;5.82;;;2.28;;
8694;SDS011;65580;49.446;6.854;2023-07-08T18:52:48;6.07;;;2.42;;
8694;SDS011;65580;49.446;6.854;2023-07-08T18:56:51;7.03;;;2.50;;
8694;SDS011;65580;49.446;6.854;2023-07-08T19:00:54;5.55;;;2.63;;
8694;SDS011;65580;49.446;6.854;2023-07-08T19:04:59;5.75;;;2.75;;
8694;SDS011;65580;49.446;6.854;2023-07-08T19:09:02;6.88;;;2.70;;
8694;SDS011;65580;49.446;6.854;2023-07-08T19:13:05;7.22;;;2.65;;
8694;SDS011;65580;49.446;6.854;2023-07-08T19:17:12;6.43;;;2.50;;
8694;SDS011;65580;49.446;6.854;2023-07-08T19:21:17;9.90;;;2.92;;
8694;SDS011;65580;49.446;6.854;2023-07-08T19:25:23;6.32;;;2.90;;
8694;SDS011;65580;49.446;6.854;2023-07-08T19:29:27;4.72;;;2.40;;
8694;SDS011;65580;49.446;6.854;2023-07-08T19:33:30;6.60;;;3.00;;
8694;SDS011;65580;49.446;6.854;2023-07-08T19:37:36;7.60;;;2.58;;
8694;SDS011;65580;49.446;6.854;2023-07-08T19:41:39;4.75;;;2.72;;
8694;SDS011;65580;49.446;6.854;2023-07-08T19:45:43;8.23;;;2.80;;
8694;SDS011;65580;49.446;6.854;2023-07-08T19:49:46;7.35;;;2.75;;
8694;SDS011;65580;49.446;6.854;2023-07-08T19:53:50;6.22;;;3.80;;
8694;SDS011;65580;49.446;6.854;2023-07-08T19:57:53;6.68;;;3.30;;
8694;SDS011;65580;49.446;6.854;2023-07-08T20:01:57;6.07;;;3.47;;
8694;SDS011;65580;49.446;6.854;2023-07-08T20:06:09;5.47;;;2.88;;
8694;SDS011;65580;49.446;6.854;2023-07-08T20:10:16;5.53;;;2.47;;
8694;SDS011;65580;49.446;6.854;2023-07-08T20:14:20;8.13;;;2.90;;
8694;SDS011;65580;49.446;6.854;2023-07-08T20:18:25;7.40;;;2.90;;
8694;SDS011;65580;49.446;6.854;2023-07-08T20:22:31;4.72;;;2.53;;
8694;SDS011;65580;49.446;6.854;2023-07-08T20:26:37;4.60;;;2.50;;
8694;SDS011;65580;49.446;6.854;2023-07-08T20:30:42;4.68;;;2.58;;
8694;SDS011;65580;49.446;6.854;2023-07-08T20:34:45;6.65;;;2.50;;
8694;SDS011;65580;49.446;6.854;2023-07-08T20:38:49;10.13;;;3.13;;
8694;SDS011;65580;49.446;6.854;2023-07-08T20:42:54;11.48;;;2.78;;
8694;SDS011;65580;49.446;6.854;2023-07-08T20:46:56;5.80;;;2.85;;
8694;SDS011;65580;49.446;6.854;2023-07-08T20:50:59;5.60;;;2.45;;
8694;SDS011;65580;49.446;6.854;2023-07-08T20:55:03;6.88;;;3.13;;
8694;SDS011;65580;49.446;6.854;2023-07-08T20:59:09;9.73;;;2.58;;
8694;SDS011;65580;49.446;6.854;2023-07-08T21:03:18;7.05;;;2.75;;
8694;SDS011;65580;49.446;6.854;2023-07-08T21:07:21;4.13;;;2.58;;
8694;SDS011;65580;49.446;6.854;2023-07-08T21:11:24;8.73;;;3.05;;
8694;SDS011;65580;49.446;6.854;2023-07-08T21:15:30;7.85;;;2.88;;
8694;SDS011;65580;49.446;6.854;2023-07-08T21:19:34;7.78;;;2.65;;
8694;SDS011;65580;49.446;6.854;2023-07-08T21:23:37;5.07;;;3.03;;
8694;SDS011;65580;49.446;6.854;2023-07-08T21:27:41;5.35;;;3.08;;
8694;SDS011;65580;49.446;6.854;2023-07-08T21:31:47;6.28;;;3.00;;
8694;SDS011;65580;49.446;6.854;2023-07-08T21:35:50;6.82;;;2.60;;
8694;SDS011;65580;49.446;6.854;2023-07-08T21:39:54;6.10;;;2.83;;
8694;SDS011;65580;49.446;6.854;2023-07-08T21:48:01;4.15;;;2.47;;
8694;SDS011;65580;49.446;6.854;2023-07-08T21:52:04;5.32;;;2.83;;
8694;SDS011;65580;49.446;6.854;2023-07-08T21:56:07;4.90;;;3.03;;
8694;SDS011;65580;49.446;6.854;2023-07-08T22:00:11;6.00;;;3.03;;
8694;SDS011;65580;49.446;6.854;2023-07-08T22:04:18;5.38;;;2.58;;
8694;SDS011;65580;49.446;6.854;2023-07-08T22:08:23;5.40;;;3.03;;
8694;SDS011;65580;49.446;6.854;2023-07-08T22:12:26;5.25;;;3.10;;
8694;SDS011;65580;49.446;6.854;2023-07-08T22:20:33;5.53;;;2.63;;
8694;SDS011;65580;49.446;6.854;2023-07-08T22:24:36;7.13;;;2.45;;
8694;SDS011;65580;49.446;6.854;2023-07-08T22:28:39;5.38;;;2.50;;
8694;SDS011;65580;49.446;6.854;2023-07-08T22:32:42;7.47;;;3.40;;
8694;SDS011;65580;49.446;6.854;2023-07-08T22:36:47;6.05;;;3.05;;
8694;SDS011;65580;49.446;6.854;2023-07-08T22:40:50;6.43;;;3.30;;
8694;SDS011;65580;49.446;6.854;2023-07-08T22:44:52;6.32;;;3.20;;
8694;SDS011;65580;49.446;6.854;2023-07-08T22:48:56;5.80;;;2.92;;
8694;SDS011;65580;49.446;6.854;2023-07-08T22:53:02;5.10;;;3.28;;
8694;SDS011;65580;49.446;6.854;2023-07-08T22:57:06;7.80;;;3.55;;
8694;SDS011;65580;49.446;6.854;2023-07-08T23:01:09;10.57;;;3.15;;
8694;SDS011;65580;49.446;6.854;2023-07-08T23:05:12;7.25;;;2.97;;
8694;SDS011;65580;49.446;6.854;2023-07-08T23:09:16;5.07;;;2.78;;
8694;SDS011;65580;49.446;6.854;2023-07-08T23:13:24;6.07;;;2.95;;
8694;SDS011;65580;49.446;6.854;2023-07-08T23:17:37;7.43;;;3.08;;
8694;SDS011;65580;49.446;6.854;2023-07-08T23:21:42;4.78;;;2.80;;
8694;SDS011;65580;49.446;6.854;2023-07-08T23:25:46;4.45;;;2.70;;
8694;SDS011;65580;49.446;6.854;2023-07-08T23:29:48;6.93;;;3.03;;
8694;SDS011;65580;49.446;6.854;2023-07-08T23:33:52;9.38;;;3.38;;
8694;SDS011;65580;49.446;6.854;2023-07-08T23:37:55;4.72;;;2.65;;
8694;SDS011;65580;49.446;6.854;2023-07-08T23:42:02;6.88;;;2.78;;
8694;SDS011;65580;49.446;6.854;2023-07-08T23:46:07;8.88;;;3.65;;
8694;SDS011;65580;49.446;6.854;2023-07-08T23:50:14;4.90;;;2.70;;
8694;SDS011;65580;49.446;6.854;2023-07-08T23:54:22;5.32;;;2.83;;
8694;SDS011;65580;49.446;6.854;2023-07-08T23:58:27;9.25;;;3.28;;
